sensor_id;sensor_type;location;lat;lon;timestamp;temperature;humidity
14741;DHT22;7462;53.530;9.414;2023-01-16T00:01:58;5.70;99.90
14741;DHT22;7462;53.530;9.414;2023-01-16T00:04:27;5.80;99.90
14741;DHT22;7462;53.530;9.414;2023-01-16T00:06:55;5.80;99.90
14741;DHT22;7462;53.530;9.414;2023-01-16T00:09:24;5.80;99.90
14741;DHT22;7462;53.530;9.414;2023-01-16T00:11:53;5.80;99.90
14741;DHT22;7462;53.530;9.414;2023-01-16T00:14:21;5.80;99.90
14741;DHT22;7462;53.530;9.414;2023-01-16T00:16:49;5.80;99.90
14741;DHT22;7462;53.530;9.414;2023-01-16T00:19:17;5.80;99.90
14741;DHT22;7462;53.530;9.414;2023-01-16T00:21:45;5.80;99.90
14741;DHT22;7462;53.530;9.414;2023-01-16T00:24:14;5.80;99.90
14741;DHT22;7462;53.530;9.414;2023-01-16T00:26:42;5.80;99.90
14741;DHT22;7462;53.530;9.414;2023-01-16T00:29:12;5.80;99.90
14741;DHT22;7462;53.530;9.414;2023-01-16T00:31:40;5.80;99.90
14741;DHT22;7462;53.530;9.414;2023-01-16T00:34:08;5.80;99.90
14741;DHT22;7462;53.530;9.414;2023-01-16T00:36:36;5.70;99.90
14741;DHT22;7462;53.530;9.414;2023-01-16T00:39:05;5.70;99.90
14741;DHT22;7462;53.530;9.414;2023-01-16T00:41:33;5.70;99.90
14741;DHT22;7462;53.530;9.414;2023-01-16T00:44:01;5.70;99.90
14741;DHT22;7462;53.530;9.414;2023-01-16T00:46:31;5.80;99.90
14741;DHT22;7462;53.530;9.414;2023-01-16T00:48:59;5.70;99.90
14741;DHT22;7462;53.530;9.414;2023-01-16T00:51:27;5.80;99.90
14741;DHT22;7462;53.530;9.414;2023-01-16T00:53:55;5.80;99.90
14741;DHT22;7462;53.530;9.414;2023-01-16T00:56:23;5.80;99.90
14741;DHT22;7462;53.530;9.414;2023-01-16T00:58:51;5.70;99.90
14741;DHT22;7462;53.530;9.414;2023-01-16T01:01:19;5.70;99.90
14741;DHT22;7462;53.530;9.414;2023-01-16T01:03:49;5.70;99.90
14741;DHT22;7462;53.530;9.414;2023-01-16T01:06:17;5.70;99.90
14741;DHT22;7462;53.530;9.414;2023-01-16T01:08:45;5.70;99.90
14741;DHT22;7462;53.530;9.414;2023-01-16T01:11:14;5.70;99.90
14741;DHT22;7462;53.530;9.414;2023-01-16T01:13:42;5.60;99.90
14741;DHT22;7462;53.530;9.414;2023-01-16T01:16:11;5.60;99.90
14741;DHT22;7462;53.530;9.414;2023-01-16T01:18:39;5.60;99.90
14741;DHT22;7462;53.530;9.414;2023-01-16T01:21:09;5.70;99.90
14741;DHT22;7462;53.530;9.414;2023-01-16T01:23:37;5.70;99.90
14741;DHT22;7462;53.530;9.414;2023-01-16T01:26:06;5.70;99.90
14741;DHT22;7462;53.530;9.414;2023-01-16T01:28:35;5.60;99.90
14741;DHT22;7462;53.530;9.414;2023-01-16T01:31:04;5.70;99.90
14741;DHT22;7462;53.530;9.414;2023-01-16T01:33:32;5.60;99.90
14741;DHT22;7462;53.530;9.414;2023-01-16T01:36:00;5.70;99.90
14741;DHT22;7462;53.530;9.414;2023-01-16T01:38:30;5.70;99.90
14741;DHT22;7462;53.530;9.414;2023-01-16T01:40:58;5.70;99.90
14741;DHT22;7462;53.530;9.414;2023-01-16T01:43:39;5.70;99.90
14741;DHT22;7462;53.530;9.414;2023-01-16T01:46:17;5.70;99.90
14741;DHT22;7462;53.530;9.414;2023-01-16T01:48:48;5.70;99.90
14741;DHT22;7462;53.530;9.414;2023-01-16T01:51:20;5.80;99.90
14741;DHT22;7462;53.530;9.414;2023-01-16T01:53:55;5.70;99.90
14741;DHT22;7462;53.530;9.414;2023-01-16T01:56:27;5.70;99.90
14741;DHT22;7462;53.530;9.414;2023-01-16T01:59:03;5.70;99.90
14741;DHT22;7462;53.530;9.414;2023-01-16T02:01:34;5.70;99.90
14741;DHT22;7462;53.530;9.414;2023-01-16T02:04:06;5.70;99.90
14741;DHT22;7462;53.530;9.414;2023-01-16T02:06:47;5.60;99.90
14741;DHT22;7462;53.530;9.414;2023-01-16T02:09:18;5.60;99.90
14741;DHT22;7462;53.530;9.414;2023-01-16T02:11:50;5.60;99.90
14741;DHT22;7462;53.530;9.414;2023-01-16T02:14:21;5.60;99.90
14741;DHT22;7462;53.530;9.414;2023-01-16T02:16:53;5.60;99.90
14741;DHT22;7462;53.530;9.414;2023-01-16T02:19:45;5.60;99.90
14741;DHT22;7462;53.530;9.414;2023-01-16T02:22:39;5.60;99.90
14741;DHT22;7462;53.530;9.414;2023-01-16T02:25:41;5.50;99.90
14741;DHT22;7462;53.530;9.414;2023-01-16T02:31:26;5.40;99.90
14741;DHT22;7462;53.530;9.414;2023-01-16T02:34:17;5.30;99.90
14741;DHT22;7462;53.530;9.414;2023-01-16T02:36:55;5.40;99.90
14741;DHT22;7462;53.530;9.414;2023-01-16T02:39:32;5.40;99.90
14741;DHT22;7462;53.530;9.414;2023-01-16T02:42:11;5.30;99.90
14741;DHT22;7462;53.530;9.414;2023-01-16T02:44:45;5.30;99.90
14741;DHT22;7462;53.530;9.414;2023-01-16T02:47:24;5.30;99.90
14741;DHT22;7462;53.530;9.414;2023-01-16T02:50:01;5.30;99.90
14741;DHT22;7462;53.530;9.414;2023-01-16T02:52:35;5.30;99.90
14741;DHT22;7462;53.530;9.414;2023-01-16T02:55:10;5.30;99.90
14741;DHT22;7462;53.530;9.414;2023-01-16T02:57:43;5.30;99.90
14741;DHT22;7462;53.530;9.414;2023-01-16T03:00:15;5.30;99.90
14741;DHT22;7462;53.530;9.414;2023-01-16T03:02:47;5.30;99.90
14741;DHT22;7462;53.530;9.414;2023-01-16T03:05:15;5.30;99.90
14741;DHT22;7462;53.530;9.414;2023-01-16T03:08:23;5.30;99.90
14741;DHT22;7462;53.530;9.414;2023-01-16T03:11:15;5.30;99.90
14741;DHT22;7462;53.530;9.414;2023-01-16T03:14:10;5.30;99.90
14741;DHT22;7462;53.530;9.414;2023-01-16T03:16:51;5.30;99.90
14741;DHT22;7462;53.530;9.414;2023-01-16T03:19:29;5.30;99.90
14741;DHT22;7462;53.530;9.414;2023-01-16T03:22:09;5.30;99.90
14741;DHT22;7462;53.530;9.414;2023-01-16T03:24:48;5.30;99.90
14741;DHT22;7462;53.530;9.414;2023-01-16T03:27:28;5.30;99.90
14741;DHT22;7462;53.530;9.414;2023-01-16T03:30:00;5.30;99.90
14741;DHT22;7462;53.530;9.414;2023-01-16T03:32:35;5.30;99.90
14741;DHT22;7462;53.530;9.414;2023-01-16T03:35:11;5.30;99.90
14741;DHT22;7462;53.530;9.414;2023-01-16T03:37:43;5.30;99.90
14741;DHT22;7462;53.530;9.414;2023-01-16T03:40:18;5.30;99.90
14741;DHT22;7462;53.530;9.414;2023-01-16T03:42:52;5.30;99.90
14741;DHT22;7462;53.530;9.414;2023-01-16T03:45:27;5.40;99.90
14741;DHT22;7462;53.530;9.414;2023-01-16T03:48:00;5.40;99.90
14741;DHT22;7462;53.530;9.414;2023-01-16T03:50:32;5.30;99.90
14741;DHT22;7462;53.530;9.414;2023-01-16T03:53:05;5.30;99.90
14741;DHT22;7462;53.530;9.414;2023-01-16T03:55:39;5.40;99.90
14741;DHT22;7462;53.530;9.414;2023-01-16T03:58:14;5.40;99.90
14741;DHT22;7462;53.530;9.414;2023-01-16T04:00:48;5.40;99.90
14741;DHT22;7462;53.530;9.414;2023-01-16T04:03:24;5.40;99.90
14741;DHT22;7462;53.530;9.414;2023-01-16T04:05:59;5.40;99.90
14741;DHT22;7462;53.530;9.414;2023-01-16T04:08:36;5.40;99.90
14741;DHT22;7462;53.530;9.414;2023-01-16T04:11:06;5.40;99.90
14741;DHT22;7462;53.530;9.414;2023-01-16T04:13:37;5.30;99.90
14741;DHT22;7462;53.530;9.414;2023-01-16T04:16:08;5.30;99.90
14741;DHT22;7462;53.530;9.414;2023-01-16T04:18:38;5.30;99.90
14741;DHT22;7462;53.530;9.414;2023-01-16T04:21:07;5.30;99.90
14741;DHT22;7462;53.530;9.414;2023-01-16T04:23:36;5.30;99.90
14741;DHT22;7462;53.530;9.414;2023-01-16T04:26:04;5.30;99.90
14741;DHT22;7462;53.530;9.414;2023-01-16T04:28:33;5.30;99.90
14741;DHT22;7462;53.530;9.414;2023-01-16T04:31:01;5.30;99.90
14741;DHT22;7462;53.530;9.414;2023-01-16T04:33:29;5.30;99.90
14741;DHT22;7462;53.530;9.414;2023-01-16T04:35:57;5.30;99.90
14741;DHT22;7462;53.530;9.414;2023-01-16T04:38:26;5.30;99.90
14741;DHT22;7462;53.530;9.414;2023-01-16T04:40:54;5.30;99.90
14741;DHT22;7462;53.530;9.414;2023-01-16T04:43:22;5.30;99.90
14741;DHT22;7462;53.530;9.414;2023-01-16T04:45:50;5.30;99.90
14741;DHT22;7462;53.530;9.414;2023-01-16T04:48:18;5.30;99.90
14741;DHT22;7462;53.530;9.414;2023-01-16T04:50:47;5.30;99.90
14741;DHT22;7462;53.530;9.414;2023-01-16T04:53:16;5.30;99.90
14741;DHT22;7462;53.530;9.414;2023-01-16T04:55:45;5.30;99.90
14741;DHT22;7462;53.530;9.414;2023-01-16T04:58:13;5.40;99.90
14741;DHT22;7462;53.530;9.414;2023-01-16T05:00:41;5.40;99.90
14741;DHT22;7462;53.530;9.414;2023-01-16T05:03:09;5.40;99.90
14741;DHT22;7462;53.530;9.414;2023-01-16T05:05:38;5.30;99.90
14741;DHT22;7462;53.530;9.414;2023-01-16T05:08:06;5.30;99.90
14741;DHT22;7462;53.530;9.414;2023-01-16T05:10:52;5.30;99.90
14741;DHT22;7462;53.530;9.414;2023-01-16T05:13:21;5.30;99.90
14741;DHT22;7462;53.530;9.414;2023-01-16T05:15:49;5.30;99.90
14741;DHT22;7462;53.530;9.414;2023-01-16T05:18:17;5.30;99.90
14741;DHT22;7462;53.530;9.414;2023-01-16T05:20:45;5.30;99.90
14741;DHT22;7462;53.530;9.414;2023-01-16T05:23:13;5.30;99.90
14741;DHT22;7462;53.530;9.414;2023-01-16T05:25:41;5.40;99.90
14741;DHT22;7462;53.530;9.414;2023-01-16T05:28:11;5.30;99.90
14741;DHT22;7462;53.530;9.414;2023-01-16T05:30:39;5.30;99.90
14741;DHT22;7462;53.530;9.414;2023-01-16T05:33:07;5.30;99.90
14741;DHT22;7462;53.530;9.414;2023-01-16T05:35:35;5.30;99.90
14741;DHT22;7462;53.530;9.414;2023-01-16T05:38:03;5.30;99.90
14741;DHT22;7462;53.530;9.414;2023-01-16T05:40:31;5.30;99.90
14741;DHT22;7462;53.530;9.414;2023-01-16T05:42:59;5.30;99.90
14741;DHT22;7462;53.530;9.414;2023-01-16T05:45:29;5.30;99.90
14741;DHT22;7462;53.530;9.414;2023-01-16T05:47:57;5.20;99.90
14741;DHT22;7462;53.530;9.414;2023-01-16T05:50:25;5.20;99.90
14741;DHT22;7462;53.530;9.414;2023-01-16T05:52:54;5.10;99.90
14741;DHT22;7462;53.530;9.414;2023-01-16T05:55:22;5.10;99.90
14741;DHT22;7462;53.530;9.414;2023-01-16T05:57:51;5.00;99.90
14741;DHT22;7462;53.530;9.414;2023-01-16T06:00:19;5.00;99.90
14741;DHT22;7462;53.530;9.414;2023-01-16T06:02:50;5.00;99.90
14741;DHT22;7462;53.530;9.414;2023-01-16T06:05:19;5.00;99.90
14741;DHT22;7462;53.530;9.414;2023-01-16T06:07:47;5.00;99.90
14741;DHT22;7462;53.530;9.414;2023-01-16T06:10:15;5.00;99.90
14741;DHT22;7462;53.530;9.414;2023-01-16T06:12:43;5.00;99.90
14741;DHT22;7462;53.530;9.414;2023-01-16T06:15:11;5.00;99.90
14741;DHT22;7462;53.530;9.414;2023-01-16T06:17:39;5.00;99.90
14741;DHT22;7462;53.530;9.414;2023-01-16T06:20:11;5.00;99.90
14741;DHT22;7462;53.530;9.414;2023-01-16T06:22:41;5.00;99.90
14741;DHT22;7462;53.530;9.414;2023-01-16T06:25:09;5.00;99.90
14741;DHT22;7462;53.530;9.414;2023-01-16T06:27:38;5.00;99.90
14741;DHT22;7462;53.530;9.414;2023-01-16T06:30:07;5.00;99.90
14741;DHT22;7462;53.530;9.414;2023-01-16T06:32:35;4.90;99.90
14741;DHT22;7462;53.530;9.414;2023-01-16T06:35:04;4.90;99.90
14741;DHT22;7462;53.530;9.414;2023-01-16T06:37:33;4.90;99.90
14741;DHT22;7462;53.530;9.414;2023-01-16T06:40:02;4.90;99.90
14741;DHT22;7462;53.530;9.414;2023-01-16T06:42:30;4.90;99.90
14741;DHT22;7462;53.530;9.414;2023-01-16T06:44:58;4.90;99.90
14741;DHT22;7462;53.530;9.414;2023-01-16T06:47:26;4.90;99.90
14741;DHT22;7462;53.530;9.414;2023-01-16T06:49:55;4.90;99.90
14741;DHT22;7462;53.530;9.414;2023-01-16T06:52:23;4.90;99.90
14741;DHT22;7462;53.530;9.414;2023-01-16T06:54:52;4.90;99.90
14741;DHT22;7462;53.530;9.414;2023-01-16T06:57:21;4.90;99.90
14741;DHT22;7462;53.530;9.414;2023-01-16T06:59:49;4.80;99.90
14741;DHT22;7462;53.530;9.414;2023-01-16T07:02:17;4.80;99.90
14741;DHT22;7462;53.530;9.414;2023-01-16T07:04:45;4.70;99.90
14741;DHT22;7462;53.530;9.414;2023-01-16T07:07:13;4.70;99.90
14741;DHT22;7462;53.530;9.414;2023-01-16T07:09:41;4.80;99.90
14741;DHT22;7462;53.530;9.414;2023-01-16T07:12:11;4.80;99.90
14741;DHT22;7462;53.530;9.414;2023-01-16T07:14:39;4.80;99.90
14741;DHT22;7462;53.530;9.414;2023-01-16T07:17:25;4.80;99.90
14741;DHT22;7462;53.530;9.414;2023-01-16T07:20:10;4.80;99.90
14741;DHT22;7462;53.530;9.414;2023-01-16T07:22:56;4.80;99.90
14741;DHT22;7462;53.530;9.414;2023-01-16T07:25:29;4.80;99.90
14741;DHT22;7462;53.530;9.414;2023-01-16T07:28:00;4.80;99.90
14741;DHT22;7462;53.530;9.414;2023-01-16T07:30:31;4.80;99.90
14741;DHT22;7462;53.530;9.414;2023-01-16T07:32:59;4.70;99.90
14741;DHT22;7462;53.530;9.414;2023-01-16T07:35:27;4.80;99.90
14741;DHT22;7462;53.530;9.414;2023-01-16T07:37:55;4.80;99.90
14741;DHT22;7462;53.530;9.414;2023-01-16T07:40:24;4.80;99.90
14741;DHT22;7462;53.530;9.414;2023-01-16T07:42:52;4.80;99.90
14741;DHT22;7462;53.530;9.414;2023-01-16T07:45:22;4.90;99.90
14741;DHT22;7462;53.530;9.414;2023-01-16T07:47:50;4.80;99.90
14741;DHT22;7462;53.530;9.414;2023-01-16T07:50:18;4.80;99.90
14741;DHT22;7462;53.530;9.414;2023-01-16T07:52:46;4.80;99.90
14741;DHT22;7462;53.530;9.414;2023-01-16T07:55:14;4.80;99.90
14741;DHT22;7462;53.530;9.414;2023-01-16T07:57:43;4.80;99.90
14741;DHT22;7462;53.530;9.414;2023-01-16T08:00:12;4.90;99.90
14741;DHT22;7462;53.530;9.414;2023-01-16T08:02:42;4.90;99.90
14741;DHT22;7462;53.530;9.414;2023-01-16T08:05:10;4.90;99.90
14741;DHT22;7462;53.530;9.414;2023-01-16T08:07:38;4.90;99.90
14741;DHT22;7462;53.530;9.414;2023-01-16T08:10:07;4.90;99.90
14741;DHT22;7462;53.530;9.414;2023-01-16T08:12:37;4.90;99.90
14741;DHT22;7462;53.530;9.414;2023-01-16T08:15:06;4.90;99.90
14741;DHT22;7462;53.530;9.414;2023-01-16T08:17:38;4.90;99.90
14741;DHT22;7462;53.530;9.414;2023-01-16T08:20:09;4.80;99.90
14741;DHT22;7462;53.530;9.414;2023-01-16T08:22:42;4.90;99.90
14741;DHT22;7462;53.530;9.414;2023-01-16T08:25:10;4.80;99.90
14741;DHT22;7462;53.530;9.414;2023-01-16T08:27:38;4.80;99.90
14741;DHT22;7462;53.530;9.414;2023-01-16T08:30:08;4.80;99.90
14741;DHT22;7462;53.530;9.414;2023-01-16T08:32:36;4.80;99.90
14741;DHT22;7462;53.530;9.414;2023-01-16T08:35:05;4.80;99.90
14741;DHT22;7462;53.530;9.414;2023-01-16T08:37:34;4.80;99.90
14741;DHT22;7462;53.530;9.414;2023-01-16T08:40:03;4.80;99.90
14741;DHT22;7462;53.530;9.414;2023-01-16T08:42:32;4.90;99.90
14741;DHT22;7462;53.530;9.414;2023-01-16T08:45:17;5.00;99.90
14741;DHT22;7462;53.530;9.414;2023-01-16T08:48:09;5.00;99.90
14741;DHT22;7462;53.530;9.414;2023-01-16T08:50:56;5.00;99.90
14741;DHT22;7462;53.530;9.414;2023-01-16T08:53:43;5.00;99.90
14741;DHT22;7462;53.530;9.414;2023-01-16T08:56:11;4.90;99.90
14741;DHT22;7462;53.530;9.414;2023-01-16T08:58:39;4.90;99.90
14741;DHT22;7462;53.530;9.414;2023-01-16T09:01:08;4.90;99.90
14741;DHT22;7462;53.530;9.414;2023-01-16T09:03:36;4.90;99.90
14741;DHT22;7462;53.530;9.414;2023-01-16T09:06:04;4.80;99.90
14741;DHT22;7462;53.530;9.414;2023-01-16T09:08:32;4.70;99.90
14741;DHT22;7462;53.530;9.414;2023-01-16T09:11:02;4.80;99.90
14741;DHT22;7462;53.530;9.414;2023-01-16T09:13:47;4.70;99.90
14741;DHT22;7462;53.530;9.414;2023-01-16T09:16:19;4.70;99.90
14741;DHT22;7462;53.530;9.414;2023-01-16T09:18:48;4.70;99.90
14741;DHT22;7462;53.530;9.414;2023-01-16T09:21:17;4.70;99.90
14741;DHT22;7462;53.530;9.414;2023-01-16T09:23:45;4.70;99.90
14741;DHT22;7462;53.530;9.414;2023-01-16T09:26:15;4.80;99.90
14741;DHT22;7462;53.530;9.414;2023-01-16T09:28:43;4.70;99.90
14741;DHT22;7462;53.530;9.414;2023-01-16T09:31:11;4.70;99.90
14741;DHT22;7462;53.530;9.414;2023-01-16T09:33:39;4.60;99.90
14741;DHT22;7462;53.530;9.414;2023-01-16T09:36:08;4.60;99.90
14741;DHT22;7462;53.530;9.414;2023-01-16T09:38:36;4.70;99.90
14741;DHT22;7462;53.530;9.414;2023-01-16T09:41:04;4.70;99.90
14741;DHT22;7462;53.530;9.414;2023-01-16T09:43:37;4.70;99.90
14741;DHT22;7462;53.530;9.414;2023-01-16T09:46:12;4.70;99.90
14741;DHT22;7462;53.530;9.414;2023-01-16T09:48:47;4.80;99.90
14741;DHT22;7462;53.530;9.414;2023-01-16T09:51:19;4.80;99.90
14741;DHT22;7462;53.530;9.414;2023-01-16T09:53:54;4.80;99.90
14741;DHT22;7462;53.530;9.414;2023-01-16T09:56:41;4.90;99.90
14741;DHT22;7462;53.530;9.414;2023-01-16T09:59:32;4.90;99.90
14741;DHT22;7462;53.530;9.414;2023-01-16T10:02:13;4.90;99.90
14741;DHT22;7462;53.530;9.414;2023-01-16T10:04:43;5.00;99.90
14741;DHT22;7462;53.530;9.414;2023-01-16T10:07:31;5.00;99.90
14741;DHT22;7462;53.530;9.414;2023-01-16T10:10:18;5.00;99.90
14741;DHT22;7462;53.530;9.414;2023-01-16T10:12:55;5.10;99.90
14741;DHT22;7462;53.530;9.414;2023-01-16T10:15:34;5.10;99.90
14741;DHT22;7462;53.530;9.414;2023-01-16T10:18:18;5.20;99.90
14741;DHT22;7462;53.530;9.414;2023-01-16T10:20:57;5.20;99.90
14741;DHT22;7462;53.530;9.414;2023-01-16T10:23:46;5.30;99.90
14741;DHT22;7462;53.530;9.414;2023-01-16T10:26:19;5.30;99.90
14741;DHT22;7462;53.530;9.414;2023-01-16T10:28:58;5.30;99.90
14741;DHT22;7462;53.530;9.414;2023-01-16T10:31:36;5.40;99.90
14741;DHT22;7462;53.530;9.414;2023-01-16T10:34:10;5.40;99.90
14741;DHT22;7462;53.530;9.414;2023-01-16T10:36:43;5.50;99.90
14741;DHT22;7462;53.530;9.414;2023-01-16T10:39:13;5.50;99.90
14741;DHT22;7462;53.530;9.414;2023-01-16T10:41:47;5.50;99.90
14741;DHT22;7462;53.530;9.414;2023-01-16T10:44:35;5.60;99.90
14741;DHT22;7462;53.530;9.414;2023-01-16T10:47:26;5.70;99.90
14741;DHT22;7462;53.530;9.414;2023-01-16T10:50:11;5.70;99.90
14741;DHT22;7462;53.530;9.414;2023-01-16T10:52:41;5.70;99.90
14741;DHT22;7462;53.530;9.414;2023-01-16T10:55:10;5.80;99.90
14741;DHT22;7462;53.530;9.414;2023-01-16T10:57:43;5.80;99.90
14741;DHT22;7462;53.530;9.414;2023-01-16T11:00:15;5.80;99.90
14741;DHT22;7462;53.530;9.414;2023-01-16T11:02:47;5.80;99.90
14741;DHT22;7462;53.530;9.414;2023-01-16T11:05:29;5.80;99.90
14741;DHT22;7462;53.530;9.414;2023-01-16T11:08:05;5.70;99.90
14741;DHT22;7462;53.530;9.414;2023-01-16T11:10:33;5.80;99.90
14741;DHT22;7462;53.530;9.414;2023-01-16T11:13:02;5.80;99.90
14741;DHT22;7462;53.530;9.414;2023-01-16T11:16:01;5.80;99.90
14741;DHT22;7462;53.530;9.414;2023-01-16T11:18:50;5.80;99.90
14741;DHT22;7462;53.530;9.414;2023-01-16T11:21:28;5.80;99.90
14741;DHT22;7462;53.530;9.414;2023-01-16T11:23:58;5.80;99.90
14741;DHT22;7462;53.530;9.414;2023-01-16T11:26:28;5.80;99.90
14741;DHT22;7462;53.530;9.414;2023-01-16T11:28:57;5.80;99.90
14741;DHT22;7462;53.530;9.414;2023-01-16T11:31:27;5.80;99.90
14741;DHT22;7462;53.530;9.414;2023-01-16T11:33:59;5.70;99.90
14741;DHT22;7462;53.530;9.414;2023-01-16T11:36:33;5.80;99.90
14741;DHT22;7462;53.530;9.414;2023-01-16T11:39:03;5.80;99.90
14741;DHT22;7462;53.530;9.414;2023-01-16T11:41:33;5.80;99.90
14741;DHT22;7462;53.530;9.414;2023-01-16T11:44:17;5.80;99.90
14741;DHT22;7462;53.530;9.414;2023-01-16T11:47:04;5.80;99.90
14741;DHT22;7462;53.530;9.414;2023-01-16T11:49:38;5.80;99.90
14741;DHT22;7462;53.530;9.414;2023-01-16T11:52:13;5.80;99.90
14741;DHT22;7462;53.530;9.414;2023-01-16T11:54:54;5.80;99.90
14741;DHT22;7462;53.530;9.414;2023-01-16T11:57:37;5.80;99.90
14741;DHT22;7462;53.530;9.414;2023-01-16T12:00:36;5.80;99.90
14741;DHT22;7462;53.530;9.414;2023-01-16T12:06:11;5.90;99.90
14741;DHT22;7462;53.530;9.414;2023-01-16T12:11:58;5.90;99.90
14741;DHT22;7462;53.530;9.414;2023-01-16T12:14:53;5.90;99.90
14741;DHT22;7462;53.530;9.414;2023-01-16T12:17:27;5.90;99.90
14741;DHT22;7462;53.530;9.414;2023-01-16T12:20:11;5.90;99.90
14741;DHT22;7462;53.530;9.414;2023-01-16T12:23:02;5.90;99.90
14741;DHT22;7462;53.530;9.414;2023-01-16T12:25:39;5.90;99.90
14741;DHT22;7462;53.530;9.414;2023-01-16T12:28:16;5.90;99.90
14741;DHT22;7462;53.530;9.414;2023-01-16T12:34:23;5.90;99.90
14741;DHT22;7462;53.530;9.414;2023-01-16T12:37:04;5.90;99.90
14741;DHT22;7462;53.530;9.414;2023-01-16T12:39:42;5.90;99.90
14741;DHT22;7462;53.530;9.414;2023-01-16T12:42:25;5.90;99.90
14741;DHT22;7462;53.530;9.414;2023-01-16T12:45:22;5.90;99.90
14741;DHT22;7462;53.530;9.414;2023-01-16T12:48:04;6.00;99.90
14741;DHT22;7462;53.530;9.414;2023-01-16T12:50:49;6.00;99.90
14741;DHT22;7462;53.530;9.414;2023-01-16T12:56:31;6.00;99.90
14741;DHT22;7462;53.530;9.414;2023-01-16T12:59:10;6.10;99.90
14741;DHT22;7462;53.530;9.414;2023-01-16T13:01:42;6.10;99.90
14741;DHT22;7462;53.530;9.414;2023-01-16T13:04:14;6.00;99.90
14741;DHT22;7462;53.530;9.414;2023-01-16T13:06:47;6.00;99.90
14741;DHT22;7462;53.530;9.414;2023-01-16T13:09:21;6.00;99.90
14741;DHT22;7462;53.530;9.414;2023-01-16T13:11:57;5.90;99.90
14741;DHT22;7462;53.530;9.414;2023-01-16T13:14:48;5.90;99.90
14741;DHT22;7462;53.530;9.414;2023-01-16T13:17:22;5.90;99.90
14741;DHT22;7462;53.530;9.414;2023-01-16T13:20:00;5.80;99.90
14741;DHT22;7462;53.530;9.414;2023-01-16T13:22:35;5.80;99.90
14741;DHT22;7462;53.530;9.414;2023-01-16T13:25:09;5.80;99.90
14741;DHT22;7462;53.530;9.414;2023-01-16T13:27:44;5.80;99.90
14741;DHT22;7462;53.530;9.414;2023-01-16T13:30:17;5.70;99.90
14741;DHT22;7462;53.530;9.414;2023-01-16T13:32:50;5.80;99.90
14741;DHT22;7462;53.530;9.414;2023-01-16T13:35:23;5.80;99.90
14741;DHT22;7462;53.530;9.414;2023-01-16T13:38:20;5.80;99.90
14741;DHT22;7462;53.530;9.414;2023-01-16T13:41:15;5.80;99.90
14741;DHT22;7462;53.530;9.414;2023-01-16T13:43:49;5.80;99.90
14741;DHT22;7462;53.530;9.414;2023-01-16T13:46:38;5.70;99.90
14741;DHT22;7462;53.530;9.414;2023-01-16T13:49:07;5.70;99.90
14741;DHT22;7462;53.530;9.414;2023-01-16T13:51:41;5.70;99.90
14741;DHT22;7462;53.530;9.414;2023-01-16T13:54:14;5.80;99.90
14741;DHT22;7462;53.530;9.414;2023-01-16T13:56:42;5.80;99.90
14741;DHT22;7462;53.530;9.414;2023-01-16T13:59:27;5.80;99.90
14741;DHT22;7462;53.530;9.414;2023-01-16T14:01:57;5.80;99.90
14741;DHT22;7462;53.530;9.414;2023-01-16T14:04:30;5.80;99.90
14741;DHT22;7462;53.530;9.414;2023-01-16T14:07:01;5.80;99.90
14741;DHT22;7462;53.530;9.414;2023-01-16T14:10:16;5.80;99.90
14741;DHT22;7462;53.530;9.414;2023-01-16T14:13:00;5.80;99.90
14741;DHT22;7462;53.530;9.414;2023-01-16T14:15:47;5.80;99.90
14741;DHT22;7462;53.530;9.414;2023-01-16T14:18:40;5.80;99.90
14741;DHT22;7462;53.530;9.414;2023-01-16T14:21:19;5.80;99.90
14741;DHT22;7462;53.530;9.414;2023-01-16T14:23:52;5.80;99.90
14741;DHT22;7462;53.530;9.414;2023-01-16T14:26:39;5.80;99.90
14741;DHT22;7462;53.530;9.414;2023-01-16T14:29:16;5.80;99.90
14741;DHT22;7462;53.530;9.414;2023-01-16T14:31:52;5.80;99.90
14741;DHT22;7462;53.530;9.414;2023-01-16T14:34:26;5.80;99.90
14741;DHT22;7462;53.530;9.414;2023-01-16T14:37:00;5.80;99.90
14741;DHT22;7462;53.530;9.414;2023-01-16T14:39:32;5.80;99.90
14741;DHT22;7462;53.530;9.414;2023-01-16T14:42:14;5.80;99.90
14741;DHT22;7462;53.530;9.414;2023-01-16T14:45:24;5.80;99.90
14741;DHT22;7462;53.530;9.414;2023-01-16T14:48:13;5.80;99.90
14741;DHT22;7462;53.530;9.414;2023-01-16T14:51:14;5.80;99.90
14741;DHT22;7462;53.530;9.414;2023-01-16T14:54:04;5.80;99.90
14741;DHT22;7462;53.530;9.414;2023-01-16T14:56:57;5.80;99.90
14741;DHT22;7462;53.530;9.414;2023-01-16T14:59:30;5.80;99.90
14741;DHT22;7462;53.530;9.414;2023-01-16T15:02:02;5.80;99.90
14741;DHT22;7462;53.530;9.414;2023-01-16T15:04:52;5.80;99.90
14741;DHT22;7462;53.530;9.414;2023-01-16T15:07:28;5.80;99.90
14741;DHT22;7462;53.530;9.414;2023-01-16T15:10:04;5.90;99.90
14741;DHT22;7462;53.530;9.414;2023-01-16T15:12:38;5.80;99.90
14741;DHT22;7462;53.530;9.414;2023-01-16T15:15:19;5.80;99.90
14741;DHT22;7462;53.530;9.414;2023-01-16T15:17:50;5.70;99.90
14741;DHT22;7462;53.530;9.414;2023-01-16T15:20:36;5.70;99.90
14741;DHT22;7462;53.530;9.414;2023-01-16T15:23:34;5.70;99.90
14741;DHT22;7462;53.530;9.414;2023-01-16T15:26:45;5.70;99.90
14741;DHT22;7462;53.530;9.414;2023-01-16T15:32:14;5.70;99.90
14741;DHT22;7462;53.530;9.414;2023-01-16T15:34:45;5.70;99.90
14741;DHT22;7462;53.530;9.414;2023-01-16T15:37:21;5.60;99.90
14741;DHT22;7462;53.530;9.414;2023-01-16T15:39:51;5.60;99.90
14741;DHT22;7462;53.530;9.414;2023-01-16T15:42:21;5.60;99.90
14741;DHT22;7462;53.530;9.414;2023-01-16T15:45:19;5.60;99.90
14741;DHT22;7462;53.530;9.414;2023-01-16T15:48:20;5.50;99.90
14741;DHT22;7462;53.530;9.414;2023-01-16T15:50:54;5.50;99.90
14741;DHT22;7462;53.530;9.414;2023-01-16T15:53:24;5.50;99.90
14741;DHT22;7462;53.530;9.414;2023-01-16T15:56:02;5.50;99.90
14741;DHT22;7462;53.530;9.414;2023-01-16T15:58:32;5.50;99.90
14741;DHT22;7462;53.530;9.414;2023-01-16T16:01:06;5.50;99.90
14741;DHT22;7462;53.530;9.414;2023-01-16T16:03:39;5.50;99.90
14741;DHT22;7462;53.530;9.414;2023-01-16T16:06:10;5.50;99.90
14741;DHT22;7462;53.530;9.414;2023-01-16T16:08:42;5.50;99.90
14741;DHT22;7462;53.530;9.414;2023-01-16T16:11:17;5.50;99.90
14741;DHT22;7462;53.530;9.414;2023-01-16T16:14:03;5.40;99.90
14741;DHT22;7462;53.530;9.414;2023-01-16T16:17:03;5.50;99.90
14741;DHT22;7462;53.530;9.414;2023-01-16T16:19:49;5.40;99.90
14741;DHT22;7462;53.530;9.414;2023-01-16T16:22:21;5.40;99.90
14741;DHT22;7462;53.530;9.414;2023-01-16T16:25:18;5.40;99.90
14741;DHT22;7462;53.530;9.414;2023-01-16T16:27:52;5.40;99.90
14741;DHT22;7462;53.530;9.414;2023-01-16T16:30:23;5.40;99.90
14741;DHT22;7462;53.530;9.414;2023-01-16T16:32:52;5.40;99.90
14741;DHT22;7462;53.530;9.414;2023-01-16T16:35:27;5.40;99.90
14741;DHT22;7462;53.530;9.414;2023-01-16T16:37:56;5.40;99.90
14741;DHT22;7462;53.530;9.414;2023-01-16T16:40:24;5.40;99.90
14741;DHT22;7462;53.530;9.414;2023-01-16T16:42:55;5.40;99.90
14741;DHT22;7462;53.530;9.414;2023-01-16T16:45:26;5.40;99.90
14741;DHT22;7462;53.530;9.414;2023-01-16T16:48:28;5.40;99.90
14741;DHT22;7462;53.530;9.414;2023-01-16T16:51:20;5.40;99.90
14741;DHT22;7462;53.530;9.414;2023-01-16T16:53:52;5.40;99.90
14741;DHT22;7462;53.530;9.414;2023-01-16T16:56:23;5.40;99.90
14741;DHT22;7462;53.530;9.414;2023-01-16T16:58:53;5.40;99.90
14741;DHT22;7462;53.530;9.414;2023-01-16T17:01:34;5.40;99.90
14741;DHT22;7462;53.530;9.414;2023-01-16T17:04:05;5.40;99.90
14741;DHT22;7462;53.530;9.414;2023-01-16T17:06:34;5.30;99.90
14741;DHT22;7462;53.530;9.414;2023-01-16T17:09:03;5.40;99.90